Air Navigation Services of Czech Republic
Airport: LKVO Updated:  25.07.2017 12:12:04  UTC
 METAR LKVO 25.07. 12:00 ...
METAR LKVO 251200Z 25011KT 9999 FEW034 BKN050 18/11 Q1004=